Time;durP1;ratioP1;P1;durP2;ratioP2;P2;SDS_P1;SDS_P2;PMS_P1;PMS_P2;Temp;Humidity;BMP_temperature;BMP_pressure;BME280_temperature;BME280_humidity;BME280_pressure;Samples;Min_cycle;Max_cycle;Signal;HPM_P1;HPM_P2
2022/04/18 00:01:41;;;;;;;22.10;7.80;;;;;;;-0.45;71.51;99898.86;103527;1300;22508;-30
2022/04/18 00:04:10;;;;;;;25.60;7.40;;;;;;;-0.50;71.86;99899.54;103540;1300;22972;-30
2022/04/18 00:06:39;;;;;;;22.70;8.10;;;;;;;-0.55;72.97;99896.23;103467;1300;24973;-27
2022/04/18 00:09:08;;;;;;;28.50;8.40;;;;;;;-0.56;70.19;99900.23;103525;1300;22513;-26
2022/04/18 00:11:37;;;;;;;35.20;12.30;;;;;;;-0.60;70.32;99893.77;103588;1300;22612;-27
2022/04/18 00:14:06;;;;;;;36.50;12.10;;;;;;;-0.59;71.25;99892.52;103541;1300;22502;-30
2022/04/18 00:16:35;;;;;;;24.10;8.30;;;;;;;-0.58;73.03;99890.33;103560;1300;22921;-29
2022/04/18 00:19:04;;;;;;;29.70;9.90;;;;;;;-0.51;68.79;99883.66;103612;1300;23776;-28
2022/04/18 00:21:33;;;;;;;15.60;6.80;;;;;;;-0.48;68.82;99882.90;103597;1300;22578;-27
2022/04/18 00:24:02;;;;;;;13.20;4.70;;;;;;;-0.54;69.74;99880.72;103649;1300;24267;-28
2022/04/18 00:26:31;;;;;;;18.50;5.80;;;;;;;-0.60;71.29;99882.06;103581;1300;23890;-29
2022/04/18 00:29:00;;;;;;;12.90;4.50;;;;;;;-0.65;71.89;99879.42;103545;1300;22506;-29
2022/04/18 00:31:29;;;;;;;17.80;6.10;;;;;;;-0.65;68.85;99875.37;103587;1300;24061;-28
2022/04/18 00:33:58;;;;;;;15.00;5.50;;;;;;;-0.61;71.28;99869.15;103598;1300;22596;-25
2022/04/18 00:36:27;;;;;;;16.10;8.00;;;;;;;-0.61;73.31;99859.42;103595;1300;22505;-28
2022/04/18 00:38:56;;;;;;;16.40;6.60;;;;;;;-0.56;71.98;99858.15;103575;1300;24326;-25
2022/04/18 00:41:25;;;;;;;17.90;6.60;;;;;;;-0.56;74.91;99860.77;103508;1302;25104;-28
2022/04/18 00:43:54;;;;;;;29.80;10.30;;;;;;;-0.63;72.69;99857.31;103603;1300;22797;-25
2022/04/18 00:46:22;;;;;;;20.90;7.30;;;;;;;-0.68;71.36;99854.86;103576;1300;22615;-29
2022/04/18 00:48:51;;;;;;;23.10;7.90;;;;;;;-0.71;73.77;99848.38;103530;1300;23614;-26
2022/04/18 00:51:22;;;;;;;21.40;8.60;;;;;;;-0.73;74.20;99847.98;103545;1300;23111;-29
2022/04/18 00:53:57;;;;;;;28.40;10.00;;;;;;;-0.77;75.56;99852.64;103566;1300;22514;-29
2022/04/18 00:56:26;;;;;;;45.30;12.40;;;;;;;-0.86;74.49;99854.23;103629;1302;24054;-27
2022/04/18 00:58:55;;;;;;;41.00;14.80;;;;;;;-0.95;73.07;99852.46;103581;1300;22635;-25
2022/04/18 01:01:24;;;;;;;47.90;18.40;;;;;;;-1.02;75.37;99846.27;103554;1301;24217;-28
2022/04/18 01:03:53;;;;;;;51.40;16.90;;;;;;;-1.10;76.40;99846.45;103564;1300;22511;-25
2022/04/18 01:06:22;;;;;;;63.00;18.20;;;;;;;-1.18;77.71;99848.29;103614;1300;22513;-27
2022/04/18 01:08:52;;;;;;;54.40;17.30;;;;;;;-1.23;74.66;99844.07;103532;1300;22497;-26
2022/04/18 01:11:21;;;;;;;51.70;17.20;;;;;;;-1.23;71.84;99836.91;103587;1302;22508;-28
2022/04/18 01:13:50;;;;;;;62.00;15.50;;;;;;;-1.24;71.21;99829.44;103610;1300;24254;-26
2022/04/18 01:16:19;;;;;;;45.10;10.60;;;;;;;-1.31;72.52;99827.13;103551;1300;24230;-26
2022/04/18 01:18:49;;;;;;;30.20;11.90;;;;;;;-1.33;73.44;99826.59;103470;1302;22500;-26
2022/04/18 01:21:19;;;;;;;41.50;15.00;;;;;;;-1.40;74.11;99829.50;103496;1300;22607;-25
2022/04/18 01:23:48;;;;;;;50.90;15.00;;;;;;;-1.49;79.05;99831.52;103501;1300;26184;-25
2022/04/18 01:31:22;;;;;;;49.50;19.30;;;;;;;-1.61;74.72;99822.44;103528;1300;24252;-27
2022/04/18 01:33:51;;;;;;;37.60;13.50;;;;;;;-1.72;80.97;99824.05;103502;1302;22517;-29
2022/04/18 01:36:20;;;;;;;43.60;16.00;;;;;;;-1.72;77.93;99817.93;103572;1300;23921;-27
2022/04/18 01:38:49;;;;;;;40.50;14.00;;;;;;;-1.70;75.44;99805.27;103586;1300;25209;-29
2022/04/18 01:41:18;;;;;;;48.80;17.10;;;;;;;-1.71;75.82;99800.66;103549;1300;22844;-29
2022/04/18 01:43:47;;;;;;;44.30;14.40;;;;;;;-1.70;76.41;99803.35;103512;1300;24301;-26
2022/04/18 01:46:17;;;;;;;29.60;10.80;;;;;;;-1.67;75.83;99801.90;103550;1300;24993;-29
2022/04/18 01:48:47;;;;;;;42.60;12.20;;;;;;;-1.62;73.50;99796.45;103609;1300;22779;-25
2022/04/18 01:51:17;;;;;;;22.00;8.90;;;;;;;-1.65;73.77;99795.27;103517;1300;23037;-26
2022/04/18 01:53:47;;;;;;;32.90;10.80;;;;;;;-1.70;79.84;99790.58;103578;1299;22546;-27
2022/04/18 01:56:16;;;;;;;28.30;10.40;;;;;;;-1.79;78.04;99788.41;103561;1300;25228;-28
2022/04/18 01:58:45;;;;;;;34.90;10.80;;;;;;;-1.87;75.11;99784.70;103535;1300;23610;-28
2022/04/18 02:01:15;;;;;;;32.80;11.50;;;;;;;-1.92;74.32;99780.17;103561;1300;24302;-25
2022/04/18 02:03:44;;;;;;;33.60;10.70;;;;;;;-2.01;74.00;99779.89;103568;1300;24218;-25
2022/04/18 02:06:12;;;;;;;35.10;13.40;;;;;;;-2.03;75.76;99778.83;103493;1300;22627;-25
2022/04/18 02:08:41;;;;;;;29.50;13.10;;;;;;;-2.06;75.69;99776.42;103548;1300;23943;-26
2022/04/18 02:11:10;;;;;;;42.00;17.50;;;;;;;-2.06;76.90;99770.30;103530;1300;24213;-26
2022/04/18 02:13:39;;;;;;;32.70;11.90;;;;;;;-2.10;76.56;99770.05;103617;1300;22745;-25
2022/04/18 02:16:08;;;;;;;26.90;12.00;;;;;;;-2.13;81.08;99771.64;103589;1300;23801;-25
2022/04/18 02:18:37;;;;;;;38.70;15.80;;;;;;;-2.20;82.00;99766.84;103532;1300;22508;-28
2022/04/18 02:21:11;;;;;;;40.10;15.10;;;;;;;-2.20;78.34;99765.64;103556;1300;22801;-28
2022/04/18 02:23:40;;;;;;;33.60;11.70;;;;;;;-2.16;77.91;99762.92;103557;1300;23635;-26
2022/04/18 02:26:09;;;;;;;34.20;11.40;;;;;;;-2.16;82.71;99761.66;103512;1300;22846;-28
2022/04/18 02:28:39;;;;;;;24.50;8.30;;;;;;;-2.16;78.36;99761.46;103490;1300;24303;-25
2022/04/18 02:31:09;;;;;;;20.70;7.50;;;;;;;-2.31;76.76;99757.98;103434;1302;22753;-28
2022/04/18 02:33:38;;;;;;;13.80;6.10;;;;;;;-2.46;81.22;99755.98;103577;1300;22502;-25
2022/04/18 02:36:06;;;;;;;14.30;5.90;;;;;;;-2.47;79.46;99753.24;103622;1300;24297;-30
2022/04/18 02:38:35;;;;;;;31.70;9.20;;;;;;;-2.48;78.74;99748.60;103539;1300;23762;-25
2022/04/18 02:41:04;;;;;;;23.50;7.40;;;;;;;-2.49;80.01;99747.10;103570;1300;22500;-25
2022/04/18 02:43:33;;;;;;;13.60;6.70;;;;;;;-2.49;81.85;99745.52;103586;1300;22522;-26
2022/04/18 02:46:02;;;;;;;26.20;7.50;;;;;;;-2.51;79.39;99740.57;103532;1300;24287;-28
2022/04/18 02:48:31;;;;;;;18.30;6.40;;;;;;;-2.50;81.94;99741.77;103604;1300;22788;-25
2022/04/18 02:51:00;;;;;;;21.50;8.60;;;;;;;-2.49;82.09;99733.44;103543;1300;24237;-29
2022/04/18 02:53:29;;;;;;;29.90;8.80;;;;;;;-2.46;83.00;99733.41;103538;1300;22512;-30
2022/04/18 02:55:58;;;;;;;21.70;9.70;;;;;;;-2.45;82.07;99731.60;103594;1300;24247;-27
2022/04/18 02:58:27;;;;;;;24.90;11.90;;;;;;;-2.48;81.89;99731.59;103564;1300;22513;-29
2022/04/18 03:00:56;;;;;;;34.00;11.40;;;;;;;-2.54;83.04;99731.73;103570;1300;22706;-25
2022/04/18 03:03:25;;;;;;;31.70;10.50;;;;;;;-2.62;82.57;99729.95;103499;1300;22511;-25
2022/04/18 03:05:54;;;;;;;24.20;7.70;;;;;;;-2.60;84.76;99729.50;103541;1300;22501;-25
2022/04/18 03:08:23;;;;;;;23.40;10.20;;;;;;;-2.53;81.04;99731.82;103568;1300;23641;-28
2022/04/18 03:13:24;;;;;;;16.80;7.60;;;;;;;-2.56;84.72;99725.36;103540;1300;22514;-26
2022/04/18 03:15:54;;;;;;;22.70;10.60;;;;;;;-2.57;84.61;99728.89;103579;1300;24003;-25
2022/04/18 03:18:23;;;;;;;31.30;11.40;;;;;;;-2.65;84.06;99732.30;103630;1300;23797;-28
2022/04/18 03:20:52;;;;;;;30.90;10.50;;;;;;;-2.73;87.49;99738.94;103557;1300;24984;-28
2022/04/18 03:23:21;;;;;;;28.90;11.40;;;;;;;-2.75;88.22;99738.58;103631;1300;22500;-25
2022/04/18 03:25:50;;;;;;;20.80;8.50;;;;;;;-2.76;88.10;99736.37;103568;1300;23801;-26
2022/04/18 03:28:20;;;;;;;21.80;10.20;;;;;;;-2.72;89.31;99731.84;103523;1300;23602;-25
2022/04/18 03:30:49;;;;;;;19.40;7.30;;;;;;;-2.75;88.60;99732.45;103523;1300;23915;-29
2022/04/18 03:33:18;;;;;;;23.90;8.50;;;;;;;-2.71;90.44;99728.84;103508;1300;24249;-25
2022/04/18 03:40:52;;;;;;;40.50;11.60;;;;;;;-2.58;86.07;99720.41;103571;1300;23921;-25
2022/04/18 03:43:21;;;;;;;30.40;10.80;;;;;;;-2.60;84.18;99724.20;103557;1300;22539;-25
2022/04/18 03:45:50;;;;;;;25.40;9.70;;;;;;;-2.64;82.89;99728.00;103600;1302;24323;-28
2022/04/18 03:48:19;;;;;;;24.70;10.50;;;;;;;-2.69;82.30;99717.98;103538;1300;23588;-28
2022/04/18 03:50:48;;;;;;;30.50;12.80;;;;;;;-2.70;82.13;99712.77;103516;1299;23902;-26
2022/04/18 03:53:17;;;;;;;26.10;10.00;;;;;;;-2.73;82.21;99712.48;103549;1300;23590;-29
2022/04/18 03:55:46;;;;;;;29.20;9.70;;;;;;;-2.80;82.99;99709.77;103445;1302;22793;-26
2022/04/18 03:58:15;;;;;;;25.80;9.40;;;;;;;-2.79;81.87;99709.93;103617;1300;24455;-29
2022/04/18 04:00:44;;;;;;;30.50;12.40;;;;;;;-2.78;81.59;99709.48;103515;1300;24426;-29
2022/04/18 04:03:12;;;;;;;32.40;10.90;;;;;;;-2.73;81.10;99711.27;103533;1300;24305;-29
2022/04/18 04:05:41;;;;;;;24.80;10.70;;;;;;;-2.80;81.86;99709.11;103515;1300;23863;-26
2022/04/18 04:08:10;;;;;;;25.50;10.30;;;;;;;-2.78;81.84;99709.84;103575;1300;22918;-25
2022/04/18 04:10:39;;;;;;;37.00;12.20;;;;;;;-2.81;81.74;99707.40;103556;1300;23821;-25
2022/04/18 04:13:09;;;;;;;37.10;9.80;;;;;;;-2.84;81.24;99707.77;103393;1300;312176;-29
2022/04/18 04:15:39;;;;;;;32.90;11.70;;;;;;;-2.84;82.53;99703.40;103598;1300;25380;-28
2022/04/18 04:18:08;;;;;;;29.60;11.40;;;;;;;-2.79;83.22;99710.11;103541;1300;24215;-26
2022/04/18 04:20:37;;;;;;;37.50;11.10;;;;;;;-2.66;85.18;99705.70;103554;1300;23607;-28
2022/04/18 04:23:06;;;;;;;28.80;10.30;;;;;;;-2.41;85.62;99705.55;103558;1300;23432;-30
2022/04/18 04:25:35;;;;;;;36.50;13.10;;;;;;;-1.98;87.01;99699.17;103496;1302;22716;-26
2022/04/18 04:28:04;;;;;;;26.60;11.40;;;;;;;-1.56;84.33;99695.11;103544;1300;24289;-28
2022/04/18 04:30:33;;;;;;;22.40;10.20;;;;;;;-1.19;84.07;99691.99;103591;1300;24246;-25
2022/04/18 04:33:02;;;;;;;26.30;11.20;;;;;;;-0.80;84.58;99691.18;103761;1300;23825;-25
2022/04/18 04:35:31;;;;;;;32.90;11.60;;;;;;;-0.43;84.48;99691.68;103755;1300;22825;-25
2022/04/18 04:38:00;;;;;;;35.10;12.30;;;;;;;-0.04;84.37;99686.16;103740;1300;22901;-25
2022/04/18 04:40:30;;;;;;;30.20;10.80;;;;;;;0.25;82.27;99689.81;103744;1300;22516;-25
2022/04/18 04:42:59;;;;;;;28.30;11.80;;;;;;;0.51;81.70;99685.60;103727;1300;22897;-27
2022/04/18 04:45:28;;;;;;;26.00;11.00;;;;;;;0.77;80.64;99685.91;103693;1300;25396;-25
2022/04/18 04:47:57;;;;;;;24.90;11.90;;;;;;;1.05;80.11;99688.15;103733;1300;24014;-24
2022/04/18 04:50:26;;;;;;;40.90;12.60;;;;;;;1.36;79.05;99690.84;103605;1300;24217;-28
2022/04/18 04:52:55;;;;;;;26.10;11.10;;;;;;;1.71;78.22;99688.16;103635;1300;24324;-29
2022/04/18 04:55:24;;;;;;;36.70;12.60;;;;;;;1.97;76.60;99685.34;103672;1300;24991;-24
2022/04/18 04:57:53;;;;;;;24.40;12.00;;;;;;;2.17;75.41;99684.69;103659;1300;22511;-30
2022/04/18 05:00:22;;;;;;;21.30;10.10;;;;;;;2.32;75.75;99680.35;103583;1300;23562;-25
2022/04/18 05:02:55;;;;;;;26.70;11.50;;;;;;;2.45;76.41;99678.17;103475;1301;25073;-30
2022/04/18 05:05:24;;;;;;;33.50;11.00;;;;;;;2.44;76.70;99672.17;103605;1300;23849;-29
2022/04/18 05:07:53;;;;;;;25.50;12.20;;;;;;;2.48;76.96;99678.38;103511;1300;22562;-25
2022/04/18 05:10:22;;;;;;;33.60;14.40;;;;;;;2.50;76.82;99674.84;103679;1300;22635;-25
2022/04/18 05:12:51;;;;;;;26.90;12.80;;;;;;;2.62;76.95;99671.48;103578;1300;23747;-28
2022/04/18 05:15:20;;;;;;;24.40;12.10;;;;;;;2.68;76.52;99671.59;103630;1300;24407;-25
2022/04/18 05:17:49;;;;;;;27.20;13.20;;;;;;;2.81;75.84;99668.63;103529;1300;24663;-28
2022/04/18 05:20:18;;;;;;;25.90;12.90;;;;;;;2.99;75.45;99668.28;103601;1300;25137;-28
2022/04/18 05:22:50;;;;;;;27.00;13.90;;;;;;;3.09;73.28;99668.60;103605;1300;24260;-25
2022/04/18 05:25:20;;;;;;;40.60;14.20;;;;;;;3.29;72.92;99666.92;103628;1300;23810;-28
2022/04/18 05:27:50;;;;;;;31.70;15.00;;;;;;;3.56;71.95;99667.70;103614;1300;22680;-28
2022/04/18 05:30:19;;;;;;;38.60;17.20;;;;;;;3.62;69.34;99670.21;103650;1300;22764;-25
2022/04/18 05:32:48;;;;;;;47.70;17.60;;;;;;;3.55;68.84;99667.13;103542;1300;22510;-27
2022/04/18 05:35:17;;;;;;;32.50;16.20;;;;;;;3.63;69.63;99663.71;103562;1300;24235;-30
2022/04/18 05:37:47;;;;;;;45.70;16.10;;;;;;;3.67;68.58;99663.27;103626;1300;22768;-25
2022/04/18 05:40:16;;;;;;;32.30;17.40;;;;;;;3.72;67.63;99659.96;103606;1300;24242;-25
2022/04/18 05:42:44;;;;;;;38.90;15.80;;;;;;;4.16;70.81;99656.30;103547;1302;24216;-25
2022/04/18 05:45:14;;;;;;;33.40;15.00;;;;;;;4.54;70.62;99657.47;103600;1300;25026;-29
2022/04/18 05:47:43;;;;;;;39.00;16.60;;;;;;;4.81;69.77;99658.97;103611;1300;23740;-25
2022/04/18 05:50:12;;;;;;;28.70;13.60;;;;;;;5.03;68.36;99662.61;103626;1300;24332;-29
2022/04/18 05:52:41;;;;;;;31.90;15.60;;;;;;;5.22;68.29;99664.75;103585;1300;23599;-25
2022/04/18 05:55:10;;;;;;;34.80;13.10;;;;;;;5.11;64.18;99666.51;103623;1300;25127;-25
2022/04/18 05:57:39;;;;;;;38.00;14.40;;;;;;;5.15;62.88;99667.23;103597;1300;23963;-25
2022/04/18 06:00:09;;;;;;;42.80;16.50;;;;;;;4.81;60.65;99670.14;103571;1300;23938;-31
2022/04/18 06:02:38;;;;;;;42.40;16.90;;;;;;;4.58;61.63;99668.68;103647;1300;23822;-25
2022/04/18 06:05:07;;;;;;;38.10;15.20;;;;;;;4.23;62.88;99676.31;103537;1300;23587;-28
2022/04/18 06:07:36;;;;;;;27.70;13.00;;;;;;;4.35;64.25;99677.70;103595;1300;23761;-28
2022/04/18 06:10:05;;;;;;;50.60;17.60;;;;;;;4.41;64.47;99677.61;103628;1300;25130;-28
2022/04/18 06:12:34;;;;;;;28.70;13.20;;;;;;;4.47;63.98;99680.54;103583;1300;23753;-25
2022/04/18 06:15:04;;;;;;;28.30;11.30;;;;;;;4.46;63.08;99678.37;103465;1300;23515;-28
2022/04/18 06:17:33;;;;;;;18.00;10.50;;;;;;;4.46;63.37;99681.16;103681;1300;25108;-24
2022/04/18 06:20:03;;;;;;;24.70;12.60;;;;;;;4.47;62.76;99675.92;103627;1300;24427;-25
2022/04/18 06:22:32;;;;;;;36.70;15.60;;;;;;;4.55;63.23;99678.15;103503;1300;24240;-28
2022/04/18 06:25:01;;;;;;;56.90;19.50;;;;;;;4.67;63.41;99680.02;103592;1300;25112;-25
2022/04/18 06:27:30;;;;;;;58.60;23.80;;;;;;;4.85;63.71;99680.89;103542;1300;24247;-28
2022/04/18 06:29:59;;;;;;;49.20;21.40;;;;;;;4.93;63.69;99677.05;103610;1300;23603;-28
2022/04/18 06:32:28;;;;;;;33.00;12.70;;;;;;;5.15;64.00;99677.85;103584;1300;24306;-24
2022/04/18 06:34:59;;;;;;;23.70;11.90;;;;;;;5.67;63.30;99679.36;103552;1300;22504;-28
2022/04/18 06:37:28;;;;;;;25.80;11.70;;;;;;;6.05;62.19;99677.40;103581;1300;23738;-30
2022/04/18 06:39:58;;;;;;;27.90;11.50;;;;;;;6.31;61.63;99678.86;103537;1300;23587;-28
2022/04/18 06:42:27;;;;;;;27.00;12.90;;;;;;;6.44;61.57;99675.66;103638;1300;25080;-29
2022/04/18 06:44:56;;;;;;;29.90;12.00;;;;;;;6.80;61.26;99672.17;103650;1300;23796;-26
2022/04/18 06:47:25;;;;;;;43.70;21.10;;;;;;;7.16;59.46;99669.58;103617;1300;22506;-25
2022/04/18 06:49:54;;;;;;;14.70;8.90;;;;;;;7.19;58.18;99668.33;103731;1299;24999;-25
2022/04/18 06:52:23;;;;;;;40.70;20.70;;;;;;;7.37;56.76;99668.36;103647;1300;24380;-25
2022/04/18 06:54:52;;;;;;;15.60;9.60;;;;;;;7.55;55.59;99669.73;103695;1299;23799;-30
2022/04/18 06:57:21;;;;;;;17.90;8.80;;;;;;;7.50;54.73;99672.95;103714;1300;24217;-25
2022/04/18 06:59:50;;;;;;;29.30;14.20;;;;;;;7.37;55.18;99671.13;103751;1301;23803;-27
2022/04/18 07:02:19;;;;;;;20.30;13.30;;;;;;;7.75;55.56;99666.77;103589;1300;23601;-31
2022/04/18 07:04:49;;;;;;;15.50;7.80;;;;;;;7.90;53.52;99665.60;103525;1300;24260;-28
2022/04/18 07:07:18;;;;;;;25.80;11.20;;;;;;;8.09;54.40;99665.38;103765;1300;24282;-25
2022/04/18 07:09:47;;;;;;;17.50;8.60;;;;;;;8.40;54.52;99664.58;103839;1300;24226;-29
2022/04/18 07:12:22;;;;;;;13.70;9.00;;;;;;;8.62;51.99;99663.83;103669;1300;24308;-30
2022/04/18 07:14:51;;;;;;;13.40;9.80;;;;;;;8.89;50.60;99666.17;103850;1300;22738;-30
2022/04/18 07:17:20;;;;;;;49.00;14.10;;;;;;;9.04;48.60;99664.98;103688;1300;23515;-25
2022/04/18 07:19:49;;;;;;;18.20;8.20;;;;;;;9.14;47.63;99667.41;103737;1300;24340;-25
2022/04/18 07:22:18;;;;;;;12.20;5.40;;;;;;;8.95;48.34;99670.27;103787;1300;25074;-28
2022/04/18 07:24:47;;;;;;;16.50;7.60;;;;;;;8.97;48.64;99669.60;103651;1300;22509;-28
2022/04/18 07:27:15;;;;;;;15.70;6.50;;;;;;;9.16;47.92;99666.05;103556;1300;24715;-25
2022/04/18 07:29:44;;;;;;;27.90;8.30;;;;;;;9.43;46.98;99667.88;103522;1300;22793;-28
2022/04/18 07:32:13;;;;;;;10.40;5.30;;;;;;;9.63;45.93;99668.28;103590;1300;25094;-25
2022/04/18 07:34:42;;;;;;;16.20;7.30;;;;;;;9.47;46.23;99668.35;103435;1301;23600;-28
2022/04/18 07:37:11;;;;;;;22.30;10.10;;;;;;;9.50;46.31;99668.98;103644;1300;23482;-24
2022/04/18 07:39:40;;;;;;;23.70;10.30;;;;;;;9.78;46.31;99667.90;103580;1300;22522;-26
2022/04/18 07:42:09;;;;;;;13.40;6.80;;;;;;;9.79;46.36;99664.70;103584;1300;24176;-27
2022/04/18 07:44:38;;;;;;;11.70;5.10;;;;;;;10.09;46.56;99661.79;103347;1302;22527;-25
2022/04/18 07:47:07;;;;;;;9.10;4.40;;;;;;;10.41;46.52;99661.40;103438;1302;25035;-26
2022/04/18 07:49:36;;;;;;;14.40;6.60;;;;;;;10.45;44.82;99665.94;103562;1300;23617;-27
2022/04/18 07:52:07;;;;;;;14.00;7.00;;;;;;;10.74;43.77;99654.18;103615;1300;24017;-25
2022/04/18 07:54:36;;;;;;;7.70;4.10;;;;;;;10.51;43.06;99661.63;103569;1300;26132;-28
2022/04/18 07:57:05;;;;;;;12.70;5.20;;;;;;;10.74;42.51;99655.92;103513;1300;25000;-25
2022/04/18 07:59:34;;;;;;;14.40;5.40;;;;;;;10.75;41.91;99653.41;103553;1300;24304;-29
2022/04/18 08:02:08;;;;;;;13.10;4.80;;;;;;;10.80;40.81;99653.75;103544;1300;22505;-28
2022/04/18 08:04:39;;;;;;;7.50;4.20;;;;;;;11.03;40.29;99647.96;103577;1300;24346;-30
2022/04/18 08:07:08;;;;;;;10.90;4.40;;;;;;;11.06;39.18;99651.02;103547;1300;25138;-25
2022/04/18 08:09:37;;;;;;;6.30;3.40;;;;;;;10.77;40.64;99650.84;103541;1299;22511;-28
2022/04/18 08:12:07;;;;;;;9.00;4.80;;;;;;;11.00;41.14;99653.36;103602;1300;22501;-28
2022/04/18 08:14:36;;;;;;;4.00;2.50;;;;;;;11.24;40.80;99647.35;103540;1300;23840;-30
2022/04/18 08:17:05;;;;;;;8.60;2.60;;;;;;;11.53;38.63;99643.45;103556;1300;24344;-30
2022/04/18 08:19:35;;;;;;;24.90;7.50;;;;;;;11.26;39.63;99646.46;103511;1300;24003;-25
2022/04/18 08:22:05;;;;;;;6.40;3.40;;;;;;;11.49;39.69;99643.73;103564;1300;25351;-28
2022/04/18 08:24:34;;;;;;;7.30;3.10;;;;;;;11.12;39.37;99642.52;103562;1300;24232;-24
2022/04/18 08:27:03;;;;;;;7.40;3.40;;;;;;;11.60;40.61;99639.13;103552;1300;25041;-25
2022/04/18 08:29:32;;;;;;;4.90;2.90;;;;;;;12.03;38.60;99636.57;103515;1302;25133;-27
2022/04/18 08:32:04;;;;;;;5.50;3.20;;;;;;;11.91;39.40;99635.29;103547;1301;23789;-25
2022/04/18 08:34:33;;;;;;;6.30;2.50;;;;;;;11.83;37.86;99638.91;103631;1300;22508;-25
2022/04/18 08:37:03;;;;;;;10.90;3.50;;;;;;;11.80;38.22;99640.05;103525;1300;22507;-28
2022/04/18 08:39:32;;;;;;;3.50;2.30;;;;;;;11.88;37.92;99636.02;103593;1300;22853;-30
2022/04/18 08:42:01;;;;;;;3.10;2.60;;;;;;;11.69;38.06;99633.31;103529;1300;24283;-25
2022/04/18 08:44:30;;;;;;;2.90;2.00;;;;;;;11.49;38.07;99635.70;103586;1300;25105;-28
2022/04/18 08:46:59;;;;;;;6.30;3.40;;;;;;;11.32;36.37;99633.70;103570;1302;25120;-24
2022/04/18 08:54:32;;;;;;;5.00;2.80;;;;;;;10.91;36.22;99624.30;103575;1300;22523;-26
2022/04/18 08:57:02;;;;;;;2.70;0.90;;;;;;;10.26;34.54;99627.28;103554;1300;25325;-25
2022/04/18 08:59:31;;;;;;;1.70;0.90;;;;;;;9.96;33.82;99634.70;103524;1300;22503;-28
2022/04/18 09:02:00;;;;;;;3.40;2.00;;;;;;;9.70;34.64;99634.83;103542;1300;22962;-29
2022/04/18 09:04:29;;;;;;;5.30;1.90;;;;;;;10.15;34.77;99627.94;103529;1300;24988;-25
2022/04/18 09:07:09;;;;;;;3.10;1.60;;;;;;;9.89;34.14;99626.30;103555;1300;22742;-29
2022/04/18 09:09:38;;;;;;;2.80;2.10;;;;;;;9.57;35.19;99626.34;103566;1300;22509;-25
2022/04/18 09:12:16;;;;;;;2.90;1.90;;;;;;;9.39;36.78;99625.01;103552;1300;24282;-29
2022/04/18 09:14:48;;;;;;;7.30;2.50;;;;;;;9.43;37.61;99625.97;103515;1302;24270;-25
2022/04/18 09:17:24;;;;;;;4.60;3.00;;;;;;;9.40;37.57;99625.56;103588;1300;23746;-25
2022/04/18 09:20:00;;;;;;;5.10;2.30;;;;;;;9.73;38.35;99625.37;103538;1300;22714;-25
2022/04/18 09:22:29;;;;;;;4.70;2.60;;;;;;;9.89;37.50;99623.40;103557;1300;25138;-29
2022/04/18 09:24:57;;;;;;;1.90;1.00;;;;;;;9.66;36.49;99625.08;103539;1300;23600;-28
2022/04/18 09:27:29;;;;;;;6.10;1.90;;;;;;;9.62;36.04;99622.73;103525;1300;24308;-27
2022/04/18 09:30:05;;;;;;;3.70;1.50;;;;;;;9.79;35.68;99621.44;103719;1300;25326;-29
2022/04/18 09:32:34;;;;;;;3.80;1.30;;;;;;;10.67;33.64;99605.71;103543;1300;23614;-29
2022/04/18 09:35:04;;;;;;;4.10;1.80;;;;;;;10.39;34.02;99612.74;103598;1300;22611;-29
2022/04/18 09:37:34;;;;;;;3.00;1.60;;;;;;;10.26;34.44;99613.20;103615;1300;22872;-26
2022/04/18 09:40:03;;;;;;;2.90;1.80;;;;;;;10.03;34.22;99613.75;103572;1300;24241;-29
2022/04/18 09:42:32;;;;;;;2.60;1.40;;;;;;;9.91;34.83;99613.88;103599;1300;22890;-24
2022/04/18 09:45:01;;;;;;;3.70;1.60;;;;;;;10.28;34.10;99610.30;103597;1299;24251;-26
2022/04/18 09:47:34;;;;;;;7.90;5.10;;;;;;;10.29;33.19;99603.86;103501;1300;22629;-24
2022/04/18 09:50:10;;;;;;;2.20;1.50;;;;;;;10.80;33.89;99594.69;103551;1300;25097;-25
2022/04/18 09:52:38;;;;;;;4.10;2.20;;;;;;;10.76;35.15;99598.02;103578;1300;22919;-28
2022/04/18 09:55:08;;;;;;;6.90;2.20;;;;;;;11.06;34.37;99597.83;103654;1300;25000;-24
2022/04/18 09:57:37;;;;;;;2.90;1.70;;;;;;;11.42;34.00;99594.41;103505;1300;24298;-25
2022/04/18 10:00:06;;;;;;;6.30;2.20;;;;;;;11.94;32.99;99589.14;103557;1300;22601;-28
2022/04/18 10:02:35;;;;;;;3.30;2.60;;;;;;;11.38;31.86;99595.09;103598;1300;22520;-28
2022/04/18 10:05:05;;;;;;;4.10;2.70;;;;;;;11.35;32.49;99588.65;103624;1300;24024;-25
2022/04/18 10:07:34;;;;;;;10.10;4.70;;;;;;;11.30;32.47;99582.70;103542;1300;22503;-28
2022/04/18 10:10:04;;;;;;;5.40;2.50;;;;;;;10.38;33.90;99584.45;103576;1300;24290;-25
2022/04/18 10:12:33;;;;;;;3.30;1.90;;;;;;;10.86;33.47;99577.00;103606;1300;25039;-29
2022/04/18 10:15:02;;;;;;;6.90;3.20;;;;;;;10.77;33.59;99571.70;103556;1300;22520;-25
2022/04/18 10:17:32;;;;;;;12.00;4.10;;;;;;;10.95;34.41;99569.67;103518;1300;24331;-29
2022/04/18 10:20:09;;;;;;;3.80;2.20;;;;;;;11.10;34.52;99568.17;103555;1300;22740;-29
2022/04/18 10:22:42;;;;;;;17.60;8.70;;;;;;;11.84;33.18;99561.95;103562;1300;23916;-25
2022/04/18 10:25:16;;;;;;;6.20;3.00;;;;;;;12.02;32.32;99567.99;103517;1300;22769;-25
2022/04/18 10:27:48;;;;;;;4.40;2.40;;;;;;;12.17;32.96;99568.24;103526;1300;22776;-25
2022/04/18 10:30:17;;;;;;;4.90;2.00;;;;;;;12.15;33.01;99565.14;103583;1300;23583;-25
2022/04/18 10:32:46;;;;;;;4.70;2.60;;;;;;;12.22;32.37;99562.71;103554;1300;22507;-23
2022/04/18 10:35:15;;;;;;;5.40;3.10;;;;;;;12.35;31.77;99563.89;103523;1300;22621;-24
2022/04/18 10:37:44;;;;;;;13.00;4.70;;;;;;;11.81;32.42;99565.00;103407;1301;24253;-25
2022/04/18 10:40:17;;;;;;;4.20;2.50;;;;;;;11.53;32.21;99566.46;103550;1300;22739;-24
2022/04/18 10:42:46;;;;;;;3.20;1.70;;;;;;;11.47;32.03;99567.23;103634;1300;25271;-28
2022/04/18 10:45:17;;;;;;;3.20;2.20;;;;;;;11.63;31.05;99561.92;103595;1300;23836;-23
2022/04/18 10:47:53;;;;;;;3.40;1.60;;;;;;;11.56;31.97;99558.45;103607;1300;22512;-27
2022/04/18 10:50:24;;;;;;;5.40;2.40;;;;;;;11.92;31.85;99555.82;103555;1300;24421;-27
2022/04/18 10:53:00;;;;;;;7.70;3.80;;;;;;;12.79;30.51;99551.09;103554;1300;22951;-24
2022/04/18 10:55:29;;;;;;;3.40;2.50;;;;;;;13.47;28.66;99540.92;103575;1300;23641;-30
2022/04/18 10:58:05;;;;;;;5.60;3.60;;;;;;;13.45;28.13;99540.36;103549;1300;23833;-30
2022/04/18 11:00:43;;;;;;;4.10;2.40;;;;;;;12.43;29.31;99545.98;103544;1300;23876;-28
2022/04/18 11:03:13;;;;;;;3.30;2.00;;;;;;;12.62;29.06;99543.72;103594;1300;23803;-28
2022/04/18 11:05:42;;;;;;;5.40;2.80;;;;;;;12.92;29.17;99539.38;103585;1300;22755;-28
2022/04/18 11:08:29;;;;;;;4.20;2.60;;;;;;;13.07;28.84;99536.11;103613;1300;22506;-24
2022/04/18 11:11:03;;;;;;;74.20;35.80;;;;;;;13.15;28.40;99533.88;103609;1300;22601;-28
2022/04/18 11:13:33;;;;;;;6.10;3.20;;;;;;;14.09;27.12;99524.30;103636;1300;23640;-23
2022/04/18 11:16:24;;;;;;;21.80;13.90;;;;;;;13.75;27.25;99530.58;103517;1300;24173;-24
2022/04/18 11:19:00;;;;;;;4.70;2.80;;;;;;;14.16;27.05;99515.86;103610;1300;22506;-30
2022/04/18 11:21:36;;;;;;;8.00;4.80;;;;;;;13.62;28.20;99525.77;103527;1300;23815;-25
2022/04/18 11:24:28;;;;;;;7.80;4.00;;;;;;;13.93;27.82;99522.52;103587;1300;24121;-27
2022/04/18 11:26:58;;;;;;;3.30;2.00;;;;;;;14.14;28.30;99520.17;103590;1300;23796;-28
2022/04/18 11:29:27;;;;;;;2.90;1.90;;;;;;;14.81;27.65;99517.60;103550;1300;24274;-25
2022/04/18 11:31:56;;;;;;;6.60;3.90;;;;;;;14.74;26.30;99515.95;103589;1300;25103;-27
2022/04/18 11:34:26;;;;;;;8.60;3.80;;;;;;;14.19;27.27;99515.94;103544;1300;24257;-30
2022/04/18 11:36:56;;;;;;;3.10;1.80;;;;;;;14.63;26.85;99513.95;103621;1300;25238;-30
2022/04/18 11:39:27;;;;;;;2.50;1.70;;;;;;;14.98;26.34;99505.59;103620;1300;22765;-25
2022/04/18 11:42:01;;;;;;;3.60;1.90;;;;;;;15.03;26.64;99506.24;103607;1300;22635;-25
2022/04/18 11:44:37;;;;;;;9.30;3.50;;;;;;;15.21;26.43;99497.45;103635;1300;23913;-24
2022/04/18 11:47:08;;;;;;;4.30;1.90;;;;;;;14.22;26.51;99503.83;103576;1300;23645;-28
2022/04/18 11:49:38;;;;;;;4.20;2.50;;;;;;;13.42;27.12;99506.25;103597;1300;25296;-28